sensor_id;sensor_type;location;lat;lon;timestamp;pressure;altitude;pressure_sealevel;temperature;humidity
46682;BME280;34101;53.430;-2.224;2023-10-13T00:00:35;100050.01;;;14.62;79.90
46682;BME280;34101;53.430;-2.224;2023-10-13T00:03:03;100044.38;;;14.65;79.95
46682;BME280;34101;53.430;-2.224;2023-10-13T00:05:31;100032.01;;;14.61;79.97
46682;BME280;34101;53.430;-2.224;2023-10-13T00:08:00;100028.00;;;14.60;79.87
46682;BME280;34101;53.430;-2.224;2023-10-13T00:10:30;100022.55;;;14.61;80.17
46682;BME280;34101;53.430;-2.224;2023-10-13T00:12:58;100014.45;;;14.61;80.24
46682;BME280;34101;53.430;-2.224;2023-10-13T00:15:25;100012.40;;;14.62;80.27
46682;BME280;34101;53.430;-2.224;2023-10-13T00:17:53;100008.93;;;14.62;80.37
46682;BME280;34101;53.430;-2.224;2023-10-13T00:20:21;100002.29;;;14.59;80.46
46682;BME280;34101;53.430;-2.224;2023-10-13T00:22:49;99994.34;;;14.58;80.49
46682;BME280;34101;53.430;-2.224;2023-10-13T00:25:17;99990.53;;;14.54;80.69
46682;BME280;34101;53.430;-2.224;2023-10-13T00:27:44;99992.38;;;14.53;80.90
46682;BME280;34101;53.430;-2.224;2023-10-13T00:30:12;99986.10;;;14.51;81.07
46682;BME280;34101;53.430;-2.224;2023-10-13T00:32:40;99978.99;;;14.49;81.28
46682;BME280;34101;53.430;-2.224;2023-10-13T00:35:07;99975.15;;;14.49;81.27
46682;BME280;34101;53.430;-2.224;2023-10-13T00:37:35;99971.70;;;14.51;81.53
46682;BME280;34101;53.430;-2.224;2023-10-13T00:40:03;99964.96;;;14.51;81.67
46682;BME280;34101;53.430;-2.224;2023-10-13T00:42:31;99960.50;;;14.52;82.01
46682;BME280;34101;53.430;-2.224;2023-10-13T00:44:59;99951.82;;;14.54;82.39
46682;BME280;34101;53.430;-2.224;2023-10-13T00:47:27;99942.92;;;14.53;82.21
46682;BME280;34101;53.430;-2.224;2023-10-13T00:49:54;99937.11;;;14.58;82.21
46682;BME280;34101;53.430;-2.224;2023-10-13T00:52:22;99928.60;;;14.65;82.10
46682;BME280;34101;53.430;-2.224;2023-10-13T00:54:49;99922.88;;;14.68;82.26
46682;BME280;34101;53.430;-2.224;2023-10-13T00:57:17;99918.01;;;14.70;82.25
46682;BME280;34101;53.430;-2.224;2023-10-13T00:59:45;99911.53;;;14.74;82.37
46682;BME280;34101;53.430;-2.224;2023-10-13T01:02:12;99904.81;;;14.76;82.12
46682;BME280;34101;53.430;-2.224;2023-10-13T01:04:39;99894.46;;;14.76;82.02
46682;BME280;34101;53.430;-2.224;2023-10-13T01:07:07;99888.68;;;14.76;81.97
46682;BME280;34101;53.430;-2.224;2023-10-13T01:09:41;99885.05;;;14.77;82.14
46682;BME280;34101;53.430;-2.224;2023-10-13T01:12:09;99874.64;;;14.77;82.51
46682;BME280;34101;53.430;-2.224;2023-10-13T01:14:37;99867.90;;;14.76;82.75
46682;BME280;34101;53.430;-2.224;2023-10-13T01:17:05;99861.33;;;14.71;82.80
46682;BME280;34101;53.430;-2.224;2023-10-13T01:19:36;99848.82;;;14.76;83.22
46682;BME280;34101;53.430;-2.224;2023-10-13T01:22:04;99839.61;;;14.75;82.95
46682;BME280;34101;53.430;-2.224;2023-10-13T01:24:33;99830.04;;;14.78;83.00
46682;BME280;34101;53.430;-2.224;2023-10-13T01:27:01;99822.00;;;14.82;82.94
46682;BME280;34101;53.430;-2.224;2023-10-13T01:29:28;99814.15;;;14.83;82.99
46682;BME280;34101;53.430;-2.224;2023-10-13T01:31:56;99809.96;;;14.83;83.03
46682;BME280;34101;53.430;-2.224;2023-10-13T01:34:24;99804.65;;;14.84;83.04
46682;BME280;34101;53.430;-2.224;2023-10-13T01:36:53;99796.85;;;14.83;82.99
46682;BME280;34101;53.430;-2.224;2023-10-13T01:39:21;99787.84;;;14.85;82.84
46682;BME280;34101;53.430;-2.224;2023-10-13T01:41:49;99778.14;;;14.89;82.96
46682;BME280;34101;53.430;-2.224;2023-10-13T01:44:17;99773.57;;;14.92;82.78
46682;BME280;34101;53.430;-2.224;2023-10-13T01:46:45;99767.58;;;14.98;82.72
46682;BME280;34101;53.430;-2.224;2023-10-13T01:49:15;99767.75;;;15.02;82.86
46682;BME280;34101;53.430;-2.224;2023-10-13T01:51:42;99761.90;;;15.08;82.87
46682;BME280;34101;53.430;-2.224;2023-10-13T01:54:11;99750.65;;;15.16;82.58
46682;BME280;34101;53.430;-2.224;2023-10-13T01:56:39;99743.16;;;15.19;82.11
46682;BME280;34101;53.430;-2.224;2023-10-13T01:59:06;99733.97;;;15.22;82.20
46682;BME280;34101;53.430;-2.224;2023-10-13T02:01:34;99729.66;;;15.28;82.26
46682;BME280;34101;53.430;-2.224;2023-10-13T02:04:02;99726.38;;;15.32;82.21
46682;BME280;34101;53.430;-2.224;2023-10-13T02:06:31;99719.53;;;15.37;82.09
46682;BME280;34101;53.430;-2.224;2023-10-13T02:09:00;99711.86;;;15.41;81.83
46682;BME280;34101;53.430;-2.224;2023-10-13T02:11:28;99700.45;;;15.46;81.69
46682;BME280;34101;53.430;-2.224;2023-10-13T02:14:01;99692.13;;;15.47;81.58
46682;BME280;34101;53.430;-2.224;2023-10-13T02:16:29;99685.52;;;15.51;81.32
46682;BME280;34101;53.430;-2.224;2023-10-13T02:18:57;99675.71;;;15.51;81.06
46682;BME280;34101;53.430;-2.224;2023-10-13T02:21:25;99665.94;;;15.50;80.94
46682;BME280;34101;53.430;-2.224;2023-10-13T02:23:53;99655.69;;;15.55;81.14
46682;BME280;34101;53.430;-2.224;2023-10-13T02:26:21;99641.75;;;15.53;81.18
46682;BME280;34101;53.430;-2.224;2023-10-13T02:28:48;99634.66;;;15.52;80.88
46682;BME280;34101;53.430;-2.224;2023-10-13T02:31:16;99626.97;;;15.53;81.37
46682;BME280;34101;53.430;-2.224;2023-10-13T02:33:45;99619.88;;;15.52;81.56
46682;BME280;34101;53.430;-2.224;2023-10-13T02:36:13;99613.84;;;15.55;81.76
46682;BME280;34101;53.430;-2.224;2023-10-13T02:38:41;99609.99;;;15.61;81.54
46682;BME280;34101;53.430;-2.224;2023-10-13T02:41:15;99603.10;;;15.59;81.82
46682;BME280;34101;53.430;-2.224;2023-10-13T02:43:44;99596.85;;;15.61;81.92
46682;BME280;34101;53.430;-2.224;2023-10-13T02:46:11;99591.03;;;15.65;81.83
46682;BME280;34101;53.430;-2.224;2023-10-13T02:48:39;99587.01;;;15.69;81.76
46682;BME280;34101;53.430;-2.224;2023-10-13T02:51:08;99579.70;;;15.71;81.76
46682;BME280;34101;53.430;-2.224;2023-10-13T02:53:36;99570.20;;;15.68;81.77
46682;BME280;34101;53.430;-2.224;2023-10-13T02:56:04;99556.58;;;15.62;81.86
46682;BME280;34101;53.430;-2.224;2023-10-13T02:58:32;99548.61;;;15.62;82.13
46682;BME280;34101;53.430;-2.224;2023-10-13T03:01:00;99538.16;;;15.63;82.16
46682;BME280;34101;53.430;-2.224;2023-10-13T03:03:28;99530.70;;;15.67;82.06
46682;BME280;34101;53.430;-2.224;2023-10-13T03:05:59;99519.32;;;15.66;81.95
46682;BME280;34101;53.430;-2.224;2023-10-13T03:08:27;99506.30;;;15.68;82.33
46682;BME280;34101;53.430;-2.224;2023-10-13T03:10:55;99495.15;;;15.69;82.43
46682;BME280;34101;53.430;-2.224;2023-10-13T03:13:26;99483.69;;;15.71;82.32
46682;BME280;34101;53.430;-2.224;2023-10-13T03:15:53;99471.11;;;15.71;82.30
46682;BME280;34101;53.430;-2.224;2023-10-13T03:18:21;99464.09;;;15.73;82.25
46682;BME280;34101;53.430;-2.224;2023-10-13T03:20:48;99455.54;;;15.70;82.22
46682;BME280;34101;53.430;-2.224;2023-10-13T03:23:16;99451.89;;;15.73;82.50
46682;BME280;34101;53.430;-2.224;2023-10-13T03:25:43;99444.72;;;15.78;82.61
46682;BME280;34101;53.430;-2.224;2023-10-13T03:28:12;99438.65;;;15.83;82.36
46682;BME280;34101;53.430;-2.224;2023-10-13T03:30:40;99429.69;;;15.87;82.39
46682;BME280;34101;53.430;-2.224;2023-10-13T03:33:09;99422.30;;;15.86;82.01
46682;BME280;34101;53.430;-2.224;2023-10-13T03:35:37;99415.04;;;15.92;82.29
46682;BME280;34101;53.430;-2.224;2023-10-13T03:38:08;99409.21;;;15.94;82.25
46682;BME280;34101;53.430;-2.224;2023-10-13T03:40:36;99405.21;;;15.94;82.51
46682;BME280;34101;53.430;-2.224;2023-10-13T03:43:05;99399.40;;;15.93;82.62
46682;BME280;34101;53.430;-2.224;2023-10-13T03:45:34;99397.34;;;15.95;82.68
46682;BME280;34101;53.430;-2.224;2023-10-13T03:48:03;99393.23;;;15.93;82.47
46682;BME280;34101;53.430;-2.224;2023-10-13T03:50:31;99386.80;;;15.93;82.61
46682;BME280;34101;53.430;-2.224;2023-10-13T03:53:00;99384.79;;;15.93;82.54
46682;BME280;34101;53.430;-2.224;2023-10-13T03:55:28;99376.84;;;15.94;82.67
46682;BME280;34101;53.430;-2.224;2023-10-13T03:57:56;99372.15;;;16.00;82.54
46682;BME280;34101;53.430;-2.224;2023-10-13T04:00:26;99365.80;;;16.04;82.39
46682;BME280;34101;53.430;-2.224;2023-10-13T04:02:55;99361.00;;;16.08;82.21
46682;BME280;34101;53.430;-2.224;2023-10-13T04:05:22;99352.04;;;16.09;82.09
46682;BME280;34101;53.430;-2.224;2023-10-13T04:07:50;99341.10;;;16.11;82.37
46682;BME280;34101;53.430;-2.224;2023-10-13T04:10:21;99332.79;;;16.13;82.51
46682;BME280;34101;53.430;-2.224;2023-10-13T04:12:49;99326.20;;;16.10;82.50
46682;BME280;34101;53.430;-2.224;2023-10-13T04:15:17;99314.44;;;16.10;82.44
46682;BME280;34101;53.430;-2.224;2023-10-13T04:17:44;99305.81;;;16.13;82.39
46682;BME280;34101;53.430;-2.224;2023-10-13T04:20:12;99302.20;;;16.15;82.52
46682;BME280;34101;53.430;-2.224;2023-10-13T04:22:41;99292.65;;;16.17;82.40
46682;BME280;34101;53.430;-2.224;2023-10-13T04:25:09;99291.09;;;16.19;82.55
46682;BME280;34101;53.430;-2.224;2023-10-13T04:27:39;99276.14;;;16.21;82.68
46682;BME280;34101;53.430;-2.224;2023-10-13T04:30:07;99271.01;;;16.20;82.78
46682;BME280;34101;53.430;-2.224;2023-10-13T04:32:35;99265.35;;;16.20;82.79
46682;BME280;34101;53.430;-2.224;2023-10-13T04:35:06;99258.27;;;16.21;82.44
46682;BME280;34101;53.430;-2.224;2023-10-13T04:37:34;99251.57;;;16.21;82.40
46682;BME280;34101;53.430;-2.224;2023-10-13T04:40:02;99248.57;;;16.21;82.28
46682;BME280;34101;53.430;-2.224;2023-10-13T04:42:29;99244.67;;;16.26;82.16
46682;BME280;34101;53.430;-2.224;2023-10-13T04:44:57;99245.41;;;16.29;81.94
46682;BME280;34101;53.430;-2.224;2023-10-13T04:47:25;99242.41;;;16.32;81.61
46682;BME280;34101;53.430;-2.224;2023-10-13T04:49:52;99242.44;;;16.34;81.32
46682;BME280;34101;53.430;-2.224;2023-10-13T04:52:20;99236.35;;;16.35;81.36
46682;BME280;34101;53.430;-2.224;2023-10-13T04:54:47;99235.29;;;16.38;81.20
46682;BME280;34101;53.430;-2.224;2023-10-13T04:57:16;99229.27;;;16.38;81.17
46682;BME280;34101;53.430;-2.224;2023-10-13T04:59:44;99217.70;;;16.37;81.20
46682;BME280;34101;53.430;-2.224;2023-10-13T05:02:12;99203.54;;;16.37;80.76
46682;BME280;34101;53.430;-2.224;2023-10-13T05:04:41;99206.78;;;16.34;81.04
46682;BME280;34101;53.430;-2.224;2023-10-13T05:07:09;99214.54;;;16.34;80.99
46682;BME280;34101;53.430;-2.224;2023-10-13T05:09:37;99205.87;;;16.35;80.98
46682;BME280;34101;53.430;-2.224;2023-10-13T05:12:05;99209.18;;;16.36;81.13
46682;BME280;34101;53.430;-2.224;2023-10-13T05:14:32;99208.47;;;16.37;81.03
46682;BME280;34101;53.430;-2.224;2023-10-13T05:17:00;99208.22;;;16.35;81.08
46682;BME280;34101;53.430;-2.224;2023-10-13T05:19:28;99199.58;;;16.35;81.10
46682;BME280;34101;53.430;-2.224;2023-10-13T05:21:55;99191.18;;;16.34;81.17
46682;BME280;34101;53.430;-2.224;2023-10-13T05:24:23;99190.19;;;16.36;81.19
46682;BME280;34101;53.430;-2.224;2023-10-13T05:26:52;99185.08;;;16.35;81.38
46682;BME280;34101;53.430;-2.224;2023-10-13T05:29:19;99186.48;;;16.32;81.46
46682;BME280;34101;53.430;-2.224;2023-10-13T05:31:46;99182.94;;;16.31;81.13
46682;BME280;34101;53.430;-2.224;2023-10-13T05:34:14;99178.86;;;16.30;81.46
46682;BME280;34101;53.430;-2.224;2023-10-13T05:36:41;99180.28;;;16.33;81.61
46682;BME280;34101;53.430;-2.224;2023-10-13T05:39:09;99185.75;;;16.28;80.91
46682;BME280;34101;53.430;-2.224;2023-10-13T05:41:36;99181.00;;;16.21;81.34
46682;BME280;34101;53.430;-2.224;2023-10-13T05:44:04;99183.48;;;16.27;81.84
46682;BME280;34101;53.430;-2.224;2023-10-13T05:46:33;99186.52;;;16.26;81.62
46682;BME280;34101;53.430;-2.224;2023-10-13T05:49:01;99187.62;;;16.18;82.13
46682;BME280;34101;53.430;-2.224;2023-10-13T05:51:31;99170.76;;;16.24;82.45
46682;BME280;34101;53.430;-2.224;2023-10-13T05:53:59;99151.89;;;16.21;82.56
46682;BME280;34101;53.430;-2.224;2023-10-13T05:56:27;99140.31;;;16.17;82.84
46682;BME280;34101;53.430;-2.224;2023-10-13T05:58:55;99122.51;;;16.08;82.98
46682;BME280;34101;53.430;-2.224;2023-10-13T06:01:22;99113.39;;;16.08;83.35
46682;BME280;34101;53.430;-2.224;2023-10-13T06:03:50;99108.90;;;16.08;83.46
46682;BME280;34101;53.430;-2.224;2023-10-13T06:06:18;99114.83;;;16.07;83.54
46682;BME280;34101;53.430;-2.224;2023-10-13T06:08:48;99119.01;;;16.09;83.49
46682;BME280;34101;53.430;-2.224;2023-10-13T06:11:16;99110.55;;;16.10;83.35
46682;BME280;34101;53.430;-2.224;2023-10-13T06:13:43;99105.44;;;16.06;83.01
46682;BME280;34101;53.430;-2.224;2023-10-13T06:16:12;99111.06;;;16.03;83.17
46682;BME280;34101;53.430;-2.224;2023-10-13T06:18:40;99108.67;;;16.02;83.16
46682;BME280;34101;53.430;-2.224;2023-10-13T06:21:08;99104.79;;;16.02;83.02
46682;BME280;34101;53.430;-2.224;2023-10-13T06:23:35;99097.03;;;16.04;83.12
46682;BME280;34101;53.430;-2.224;2023-10-13T06:26:02;99108.23;;;16.07;82.68
46682;BME280;34101;53.430;-2.224;2023-10-13T06:28:30;99113.96;;;16.11;82.26
46682;BME280;34101;53.430;-2.224;2023-10-13T06:30:59;99111.21;;;16.11;82.49
46682;BME280;34101;53.430;-2.224;2023-10-13T06:33:26;99105.49;;;16.06;81.95
46682;BME280;34101;53.430;-2.224;2023-10-13T06:35:53;99100.64;;;15.99;82.08
46682;BME280;34101;53.430;-2.224;2023-10-13T06:38:21;99102.13;;;15.77;82.82
46682;BME280;34101;53.430;-2.224;2023-10-13T06:40:48;99094.62;;;15.83;83.01
46682;BME280;34101;53.430;-2.224;2023-10-13T06:43:17;99097.37;;;15.83;83.01
46682;BME280;34101;53.430;-2.224;2023-10-13T06:45:44;99098.65;;;15.85;83.13
46682;BME280;34101;53.430;-2.224;2023-10-13T06:48:11;99105.81;;;15.80;83.20
46682;BME280;34101;53.430;-2.224;2023-10-13T06:50:39;99104.81;;;15.91;83.43
46682;BME280;34101;53.430;-2.224;2023-10-13T06:53:06;99111.30;;;15.86;83.06
46682;BME280;34101;53.430;-2.224;2023-10-13T06:55:37;99111.68;;;15.79;83.86
46682;BME280;34101;53.430;-2.224;2023-10-13T06:58:05;99101.79;;;15.74;83.56
46682;BME280;34101;53.430;-2.224;2023-10-13T07:00:34;99098.45;;;15.82;83.50
46682;BME280;34101;53.430;-2.224;2023-10-13T07:03:02;99110.56;;;15.68;84.21
46682;BME280;34101;53.430;-2.224;2023-10-13T07:05:29;99131.28;;;15.43;84.73
46682;BME280;34101;53.430;-2.224;2023-10-13T07:08:02;99154.07;;;15.40;85.40
46682;BME280;34101;53.430;-2.224;2023-10-13T07:10:29;99149.46;;;15.02;86.75
46682;BME280;34101;53.430;-2.224;2023-10-13T07:12:58;99144.25;;;15.15;86.99
46682;BME280;34101;53.430;-2.224;2023-10-13T07:15:26;99152.90;;;14.90;87.85
46682;BME280;34101;53.430;-2.224;2023-10-13T07:17:53;99160.17;;;15.11;87.77
46682;BME280;34101;53.430;-2.224;2023-10-13T07:20:21;99171.71;;;15.15;87.43
46682;BME280;34101;53.430;-2.224;2023-10-13T07:22:48;99174.60;;;15.36;86.65
46682;BME280;34101;53.430;-2.224;2023-10-13T07:25:15;99186.49;;;15.56;86.44
46682;BME280;34101;53.430;-2.224;2023-10-13T07:27:43;99184.69;;;15.56;86.25
46682;BME280;34101;53.430;-2.224;2023-10-13T07:30:11;99177.00;;;15.71;85.91
46682;BME280;34101;53.430;-2.224;2023-10-13T07:32:39;99179.68;;;15.68;85.69
46682;BME280;34101;53.430;-2.224;2023-10-13T07:35:08;99191.61;;;15.80;85.57
46682;BME280;34101;53.430;-2.224;2023-10-13T07:37:36;99202.23;;;15.78;85.17
46682;BME280;34101;53.430;-2.224;2023-10-13T07:40:04;99210.01;;;15.71;85.09
46682;BME280;34101;53.430;-2.224;2023-10-13T07:42:32;99211.01;;;15.68;84.70
46682;BME280;34101;53.430;-2.224;2023-10-13T07:45:00;99211.34;;;15.65;84.98
46682;BME280;34101;53.430;-2.224;2023-10-13T07:47:28;99180.10;;;15.76;84.73
46682;BME280;34101;53.430;-2.224;2023-10-13T07:49:56;99178.89;;;15.86;84.88
46682;BME280;34101;53.430;-2.224;2023-10-13T07:52:24;99184.10;;;15.78;84.53
46682;BME280;34101;53.430;-2.224;2023-10-13T07:54:51;99172.41;;;15.76;84.40
46682;BME280;34101;53.430;-2.224;2023-10-13T07:57:19;99183.60;;;15.70;84.35
46682;BME280;34101;53.430;-2.224;2023-10-13T07:59:47;99183.10;;;15.81;84.72
46682;BME280;34101;53.430;-2.224;2023-10-13T08:02:14;99182.42;;;15.89;84.81
46682;BME280;34101;53.430;-2.224;2023-10-13T08:04:42;99182.90;;;15.94;84.41
46682;BME280;34101;53.430;-2.224;2023-10-13T08:07:13;99178.27;;;16.03;84.26
46682;BME280;34101;53.430;-2.224;2023-10-13T08:10:01;99170.33;;;16.05;84.17
46682;BME280;34101;53.430;-2.224;2023-10-13T08:12:28;99166.74;;;16.05;82.47
46682;BME280;34101;53.430;-2.224;2023-10-13T08:14:55;99162.61;;;15.98;83.24
46682;BME280;34101;53.430;-2.224;2023-10-13T08:17:23;99162.48;;;16.07;83.30
46682;BME280;34101;53.430;-2.224;2023-10-13T08:19:50;99165.03;;;16.09;83.09
46682;BME280;34101;53.430;-2.224;2023-10-13T08:22:17;99173.70;;;15.65;83.67
46682;BME280;34101;53.430;-2.224;2023-10-13T08:24:45;99176.52;;;15.54;84.73
46682;BME280;34101;53.430;-2.224;2023-10-13T08:27:15;99176.35;;;15.54;84.81
46682;BME280;34101;53.430;-2.224;2023-10-13T08:29:42;99162.74;;;15.77;84.84
46682;BME280;34101;53.430;-2.224;2023-10-13T08:32:09;99150.39;;;15.92;84.72
46682;BME280;34101;53.430;-2.224;2023-10-13T08:34:37;99149.46;;;16.04;84.04
46682;BME280;34101;53.430;-2.224;2023-10-13T08:37:04;99149.65;;;15.99;84.22
46682;BME280;34101;53.430;-2.224;2023-10-13T08:39:31;99150.77;;;15.83;83.54
46682;BME280;34101;53.430;-2.224;2023-10-13T08:42:00;99157.48;;;15.64;84.69
46682;BME280;34101;53.430;-2.224;2023-10-13T08:44:29;99152.42;;;15.28;85.80
46682;BME280;34101;53.430;-2.224;2023-10-13T08:46:57;99153.60;;;15.37;86.00
46682;BME280;34101;53.430;-2.224;2023-10-13T08:49:30;99161.55;;;15.53;85.78
46682;BME280;34101;53.430;-2.224;2023-10-13T08:52:00;99181.26;;;15.62;85.65
46682;BME280;34101;53.430;-2.224;2023-10-13T08:54:28;99200.39;;;15.31;86.77
46682;BME280;34101;53.430;-2.224;2023-10-13T08:56:56;99211.85;;;15.25;87.29
46682;BME280;34101;53.430;-2.224;2023-10-13T08:59:24;99207.91;;;15.70;86.61
46682;BME280;34101;53.430;-2.224;2023-10-13T09:01:51;99200.17;;;15.93;85.91
46682;BME280;34101;53.430;-2.224;2023-10-13T09:04:19;99201.77;;;15.73;85.47
46682;BME280;34101;53.430;-2.224;2023-10-13T09:06:47;99210.46;;;15.99;85.48
46682;BME280;34101;53.430;-2.224;2023-10-13T09:09:15;99222.06;;;16.05;84.95
46682;BME280;34101;53.430;-2.224;2023-10-13T09:11:42;99223.50;;;15.92;85.20
46682;BME280;34101;53.430;-2.224;2023-10-13T09:14:13;99224.42;;;16.06;85.09
46682;BME280;34101;53.430;-2.224;2023-10-13T09:16:41;99228.97;;;16.11;84.69
46682;BME280;34101;53.430;-2.224;2023-10-13T09:19:08;99231.75;;;16.02;84.54
46682;BME280;34101;53.430;-2.224;2023-10-13T09:21:38;99245.07;;;15.86;84.60
46682;BME280;34101;53.430;-2.224;2023-10-13T09:24:07;99256.66;;;15.94;84.58
46682;BME280;34101;53.430;-2.224;2023-10-13T09:26:36;99256.38;;;15.77;84.59
46682;BME280;34101;53.430;-2.224;2023-10-13T09:29:03;99258.05;;;15.70;83.97
46682;BME280;34101;53.430;-2.224;2023-10-13T09:31:40;99262.71;;;15.68;83.80
46682;BME280;34101;53.430;-2.224;2023-10-13T09:34:08;99265.78;;;15.63;83.86
46682;BME280;34101;53.430;-2.224;2023-10-13T09:36:35;99264.31;;;15.56;83.70
46682;BME280;34101;53.430;-2.224;2023-10-13T09:39:04;99267.58;;;15.51;83.85
46682;BME280;34101;53.430;-2.224;2023-10-13T09:41:31;99267.23;;;15.60;83.99
46682;BME280;34101;53.430;-2.224;2023-10-13T09:43:59;99276.41;;;15.67;83.26
46682;BME280;34101;53.430;-2.224;2023-10-13T09:46:27;99284.52;;;15.68;83.54
46682;BME280;34101;53.430;-2.224;2023-10-13T09:48:58;99293.24;;;15.76;83.19
46682;BME280;34101;53.430;-2.224;2023-10-13T09:51:26;99298.70;;;15.70;82.89
46682;BME280;34101;53.430;-2.224;2023-10-13T09:53:58;99294.49;;;15.78;83.06
46682;BME280;34101;53.430;-2.224;2023-10-13T09:56:35;99296.98;;;15.89;83.44
46682;BME280;34101;53.430;-2.224;2023-10-13T09:59:09;99293.97;;;16.03;82.97
46682;BME280;34101;53.430;-2.224;2023-10-13T10:01:42;99292.98;;;16.03;82.57
46682;BME280;34101;53.430;-2.224;2023-10-13T10:04:11;99292.30;;;16.10;82.24
46682;BME280;34101;53.430;-2.224;2023-10-13T10:06:40;99294.88;;;16.14;82.13
46682;BME280;34101;53.430;-2.224;2023-10-13T10:09:18;99299.70;;;16.24;81.73
46682;BME280;34101;53.430;-2.224;2023-10-13T10:12:01;99302.17;;;16.27;81.83
46682;BME280;34101;53.430;-2.224;2023-10-13T10:14:46;99313.05;;;16.31;81.57
46682;BME280;34101;53.430;-2.224;2023-10-13T10:17:19;99315.52;;;16.31;81.90
46682;BME280;34101;53.430;-2.224;2023-10-13T10:19:48;99316.42;;;16.37;81.19
46682;BME280;34101;53.430;-2.224;2023-10-13T10:22:25;99313.21;;;16.44;81.10
46682;BME280;34101;53.430;-2.224;2023-10-13T10:24:56;99317.34;;;16.53;80.99
46682;BME280;34101;53.430;-2.224;2023-10-13T10:27:25;99308.40;;;16.58;80.45
46682;BME280;34101;53.430;-2.224;2023-10-13T10:29:53;99302.07;;;16.65;80.94
46682;BME280;34101;53.430;-2.224;2023-10-13T10:32:21;99297.35;;;16.70;80.70
46682;BME280;34101;53.430;-2.224;2023-10-13T10:34:48;99306.17;;;16.75;79.97
46682;BME280;34101;53.430;-2.224;2023-10-13T10:37:15;99297.86;;;16.52;80.31
46682;BME280;34101;53.430;-2.224;2023-10-13T10:39:43;99292.82;;;16.43;80.43
46682;BME280;34101;53.430;-2.224;2023-10-13T10:42:11;99297.15;;;16.54;80.73
46682;BME280;34101;53.430;-2.224;2023-10-13T10:44:40;99303.35;;;16.57;80.36
46682;BME280;34101;53.430;-2.224;2023-10-13T10:47:10;99312.08;;;16.48;80.39
46682;BME280;34101;53.430;-2.224;2023-10-13T10:49:38;99329.14;;;16.25;80.88
46682;BME280;34101;53.430;-2.224;2023-10-13T10:52:10;99342.02;;;15.99;80.80
46682;BME280;34101;53.430;-2.224;2023-10-13T10:54:37;99350.73;;;15.86;81.39
46682;BME280;34101;53.430;-2.224;2023-10-13T10:57:04;99344.11;;;15.83;80.80
46682;BME280;34101;53.430;-2.224;2023-10-13T10:59:34;99347.50;;;15.60;81.16
46682;BME280;34101;53.430;-2.224;2023-10-13T11:02:02;99352.64;;;15.65;79.83
46682;BME280;34101;53.430;-2.224;2023-10-13T11:04:29;99348.17;;;15.64;80.45
46682;BME280;34101;53.430;-2.224;2023-10-13T11:06:57;99350.26;;;15.72;80.56
46682;BME280;34101;53.430;-2.224;2023-10-13T11:09:25;99347.24;;;15.73;80.44
46682;BME280;34101;53.430;-2.224;2023-10-13T11:11:53;99353.22;;;15.59;80.48
46682;BME280;34101;53.430;-2.224;2023-10-13T11:14:22;99356.89;;;15.70;80.82
46682;BME280;34101;53.430;-2.224;2023-10-13T11:16:51;99366.29;;;15.74;80.66
46682;BME280;34101;53.430;-2.224;2023-10-13T11:19:18;99364.91;;;15.76;80.57
46682;BME280;34101;53.430;-2.224;2023-10-13T11:21:46;99365.98;;;15.78;80.55
46682;BME280;34101;53.430;-2.224;2023-10-13T11:24:13;99373.86;;;15.77;80.10
46682;BME280;34101;53.430;-2.224;2023-10-13T11:26:41;99377.49;;;15.74;80.43
46682;BME280;34101;53.430;-2.224;2023-10-13T11:29:08;99376.62;;;15.62;80.66
46682;BME280;34101;53.430;-2.224;2023-10-13T11:31:35;99384.28;;;15.34;81.23
46682;BME280;34101;53.430;-2.224;2023-10-13T11:34:03;99379.94;;;15.35;80.93
46682;BME280;34101;53.430;-2.224;2023-10-13T11:36:31;99380.47;;;15.16;81.22
46682;BME280;34101;53.430;-2.224;2023-10-13T11:38:59;99381.71;;;15.22;81.17
46682;BME280;34101;53.430;-2.224;2023-10-13T11:41:26;99387.27;;;15.12;80.24
46682;BME280;34101;53.430;-2.224;2023-10-13T11:43:54;99387.26;;;14.88;79.88
46682;BME280;34101;53.430;-2.224;2023-10-13T11:46:23;99397.48;;;14.92;80.58
46682;BME280;34101;53.430;-2.224;2023-10-13T11:48:51;99406.73;;;14.97;80.15
46682;BME280;34101;53.430;-2.224;2023-10-13T11:51:18;99417.08;;;14.96;79.88
46682;BME280;34101;53.430;-2.224;2023-10-13T11:53:45;99417.68;;;14.89;80.09
46682;BME280;34101;53.430;-2.224;2023-10-13T11:56:13;99418.59;;;14.80;79.81
46682;BME280;34101;53.430;-2.224;2023-10-13T11:58:41;99426.10;;;14.67;79.11
46682;BME280;34101;53.430;-2.224;2023-10-13T12:01:08;99427.38;;;14.56;78.80
46682;BME280;34101;53.430;-2.224;2023-10-13T12:03:35;99429.41;;;14.28;79.44
46682;BME280;34101;53.430;-2.224;2023-10-13T12:06:03;99433.05;;;14.48;79.75
46682;BME280;34101;53.430;-2.224;2023-10-13T12:08:31;99431.73;;;14.31;79.57
46682;BME280;34101;53.430;-2.224;2023-10-13T12:10:58;99417.95;;;14.47;80.00
46682;BME280;34101;53.430;-2.224;2023-10-13T12:13:25;99405.25;;;14.57;79.26
46682;BME280;34101;53.430;-2.224;2023-10-13T12:15:53;99405.83;;;14.53;79.49
46682;BME280;34101;53.430;-2.224;2023-10-13T12:18:21;99404.84;;;14.52;80.26
46682;BME280;34101;53.430;-2.224;2023-10-13T12:20:53;99403.80;;;14.61;80.24
46682;BME280;34101;53.430;-2.224;2023-10-13T12:23:21;99411.98;;;14.67;79.59
46682;BME280;34101;53.430;-2.224;2023-10-13T12:25:48;99411.81;;;14.58;79.82
46682;BME280;34101;53.430;-2.224;2023-10-13T12:28:15;99419.89;;;14.56;79.79
46682;BME280;34101;53.430;-2.224;2023-10-13T12:30:43;99425.45;;;14.50;80.00
46682;BME280;34101;53.430;-2.224;2023-10-13T12:33:10;99422.57;;;14.42;80.00
46682;BME280;34101;53.430;-2.224;2023-10-13T12:35:40;99426.85;;;14.48;79.76
46682;BME280;34101;53.430;-2.224;2023-10-13T12:38:08;99428.89;;;14.45;79.76
46682;BME280;34101;53.430;-2.224;2023-10-13T12:40:35;99435.41;;;14.42;79.85
46682;BME280;34101;53.430;-2.224;2023-10-13T12:43:03;99437.47;;;14.46;80.10
46682;BME280;34101;53.430;-2.224;2023-10-13T12:45:31;99432.71;;;14.55;79.81
46682;BME280;34101;53.430;-2.224;2023-10-13T12:47:59;99415.49;;;14.54;79.73
46682;BME280;34101;53.430;-2.224;2023-10-13T12:50:26;99408.53;;;14.65;79.28
46682;BME280;34101;53.430;-2.224;2023-10-13T12:52:53;99413.47;;;14.57;79.53
46682;BME280;34101;53.430;-2.224;2023-10-13T12:55:21;99421.68;;;14.57;79.22